createdAt,value
2023-04-25T00:02:41.093Z,96.60
2023-04-25T00:05:27.740Z,96.70
2023-04-25T00:08:13.096Z,96.60
2023-04-25T00:10:58.813Z,96.50
2023-04-25T00:13:44.192Z,96.50
2023-04-25T00:16:31.712Z,96.80
2023-04-25T00:19:17.198Z,96.80
2023-04-25T00:22:03.278Z,96.70
2023-04-25T00:24:48.852Z,97.10
2023-04-25T00:27:34.443Z,97.20
2023-04-25T00:30:19.841Z,97.00
2023-04-25T00:33:05.376Z,97.00
2023-04-25T00:35:50.767Z,96.90
2023-04-25T00:38:36.152Z,97.10
2023-04-25T00:41:21.675Z,97.10
2023-04-25T00:44:08.529Z,96.90
2023-04-25T00:46:54.987Z,97.00
2023-04-25T00:49:40.370Z,97.00
2023-04-25T00:52:26.214Z,96.90
2023-04-25T00:55:12.357Z,96.90
2023-04-25T00:57:58.205Z,96.90
2023-04-25T01:00:43.558Z,97.00
2023-04-25T01:03:30.657Z,96.70
2023-04-25T01:06:17.290Z,96.90
2023-04-25T01:09:03.694Z,97.00
2023-04-25T01:11:50.145Z,97.00
2023-04-25T01:14:35.427Z,96.90
2023-04-25T01:17:22.100Z,97.10
2023-04-25T01:20:08.498Z,97.10
2023-04-25T01:22:53.941Z,97.20
2023-04-25T01:25:40.179Z,97.20
2023-04-25T01:28:25.629Z,97.20
2023-04-25T01:31:12.357Z,97.30
2023-04-25T01:33:57.979Z,97.30
2023-04-25T01:36:43.174Z,97.30
2023-04-25T01:39:28.917Z,97.30
2023-04-25T01:42:14.288Z,97.10
2023-04-25T01:45:00.311Z,97.00
2023-04-25T01:47:49.899Z,97.20
2023-04-25T01:50:35.411Z,97.20
2023-04-25T01:53:20.667Z,97.20
2023-04-25T01:56:06.383Z,97.20
2023-04-25T01:58:52.473Z,97.10
2023-04-25T02:01:37.801Z,97.20
2023-04-25T02:04:23.132Z,97.10
2023-04-25T02:07:08.352Z,97.10
2023-04-25T02:09:53.816Z,97.20
2023-04-25T02:12:39.102Z,97.30
2023-04-25T02:15:24.553Z,97.20
2023-04-25T02:18:11.501Z,97.30
2023-04-25T02:20:56.960Z,97.30
2023-04-25T02:23:42.378Z,97.30
2023-04-25T02:26:27.889Z,97.20
2023-04-25T02:29:13.562Z,97.30
2023-04-25T02:31:58.705Z,97.40
2023-04-25T02:34:44.090Z,97.40
2023-04-25T02:37:29.457Z,97.40
2023-04-25T02:40:14.923Z,97.60
2023-04-25T02:43:00.255Z,97.60
2023-04-25T02:45:45.704Z,97.50
2023-04-25T02:48:31.155Z,97.50
2023-04-25T02:51:17.440Z,97.40
2023-04-25T02:54:02.905Z,97.50
2023-04-25T02:56:48.294Z,97.50
2023-04-25T02:59:34.184Z,97.40
2023-04-25T03:02:19.474Z,97.50
2023-04-25T03:05:05.034Z,97.30
2023-04-25T03:07:50.507Z,97.20
2023-04-25T03:10:36.042Z,97.20
2023-04-25T03:13:21.398Z,97.40
2023-04-25T03:16:06.989Z,97.50
2023-04-25T03:18:52.488Z,97.50
2023-04-25T03:21:37.944Z,97.70
2023-04-25T03:24:23.161Z,97.90
2023-04-25T03:27:08.488Z,97.90
2023-04-25T03:29:53.873Z,98.10
2023-04-25T03:32:39.304Z,98.10
2023-04-25T03:35:25.946Z,98.00
2023-04-25T03:38:11.608Z,98.00
2023-04-25T03:40:58.175Z,97.80
2023-04-25T03:43:43.517Z,97.90
2023-04-25T03:46:29.010Z,97.90
2023-04-25T03:49:17.041Z,97.90
2023-04-25T03:52:04.367Z,97.90
2023-04-25T03:54:49.667Z,98.00
2023-04-25T03:57:34.930Z,98.00
2023-04-25T04:00:20.382Z,98.10
2023-04-25T04:03:06.197Z,98.20
2023-04-25T04:05:51.543Z,98.50
2023-04-25T04:08:36.893Z,98.60
2023-04-25T04:11:22.298Z,98.80
2023-04-25T04:14:08.413Z,98.80
2023-04-25T04:16:53.740Z,99.00
2023-04-25T04:19:39.202Z,99.10
2023-04-25T04:22:25.377Z,99.00
2023-04-25T04:25:12.607Z,99.10
2023-04-25T04:27:58.231Z,99.10
2023-04-25T04:30:46.937Z,98.90
2023-04-25T04:33:32.502Z,98.90
2023-04-25T04:36:20.753Z,98.70
2023-04-25T04:39:07.419Z,99.10
2023-04-25T04:41:54.516Z,99.60
2023-04-25T04:44:40.074Z,99.40
2023-04-25T04:47:26.923Z,99.60
2023-04-25T04:50:12.442Z,99.40
2023-04-25T04:52:57.753Z,99.70
2023-04-25T04:55:43.830Z,99.80
2023-04-25T04:58:30.738Z,99.90
2023-04-25T05:01:17.112Z,99.90
2023-04-25T05:04:03.788Z,99.90
2023-04-25T05:06:49.597Z,99.90
2023-04-25T05:09:35.034Z,99.90
2023-04-25T05:12:20.617Z,99.90
2023-04-25T05:15:06.540Z,99.90
2023-04-25T05:17:52.013Z,99.90
2023-04-25T05:20:37.430Z,99.90
2023-04-25T05:23:22.587Z,99.90
2023-04-25T05:26:14.497Z,99.90
2023-04-25T05:29:00.738Z,99.90
2023-04-25T05:31:46.326Z,99.90
2023-04-25T05:34:31.713Z,99.90
2023-04-25T05:37:16.961Z,99.90
2023-04-25T05:40:05.357Z,99.90
2023-04-25T05:42:50.609Z,99.90
2023-04-25T05:45:36.181Z,99.90
2023-04-25T05:48:21.376Z,99.20
2023-04-25T05:51:06.799Z,99.20
2023-04-25T05:53:52.686Z,99.10
2023-04-25T05:56:38.192Z,98.70
2023-04-25T05:59:23.541Z,99.10
2023-04-25T06:02:09.068Z,97.90
2023-04-25T06:04:54.529Z,98.60
2023-04-25T06:07:40.416Z,98.80
2023-04-25T06:10:25.814Z,98.70
2023-04-25T06:13:11.264Z,98.80
2023-04-25T06:15:56.734Z,98.60
2023-04-25T06:18:41.910Z,98.50
2023-04-25T06:21:28.416Z,98.40
2023-04-25T06:24:13.771Z,98.30
2023-04-25T06:27:02.297Z,98.30
2023-04-25T06:29:47.400Z,98.20
2023-04-25T06:32:33.418Z,98.10
2023-04-25T06:35:18.628Z,97.90
2023-04-25T06:38:04.132Z,98.20
2023-04-25T06:40:49.511Z,98.00
2023-04-25T06:43:35.089Z,98.00
2023-04-25T06:46:20.757Z,98.00
2023-04-25T06:49:06.356Z,97.70
2023-04-25T06:51:51.637Z,97.70
2023-04-25T06:54:36.793Z,97.60
2023-04-25T06:57:22.172Z,97.30
2023-04-25T07:00:10.419Z,97.40
2023-04-25T07:02:55.662Z,97.50
2023-04-25T07:05:41.195Z,97.80
2023-04-25T07:08:26.149Z,97.60
2023-04-25T07:11:11.577Z,96.90
2023-04-25T07:13:56.996Z,96.60
2023-04-25T07:16:42.879Z,96.70
2023-04-25T07:19:30.704Z,96.80
2023-04-25T07:22:16.082Z,96.60
2023-04-25T07:25:01.524Z,97.50
2023-04-25T07:27:47.082Z,96.40
2023-04-25T07:30:32.511Z,96.50
2023-04-25T07:33:18.281Z,96.30
2023-04-25T07:36:03.627Z,96.60
2023-04-25T07:38:49.072Z,96.10
2023-04-25T07:41:34.425Z,96.00
2023-04-25T07:44:19.806Z,96.20
2023-04-25T07:47:08.036Z,96.30
2023-04-25T07:49:53.399Z,96.50
2023-04-25T07:52:38.728Z,95.70
2023-04-25T07:55:24.202Z,95.60
2023-04-25T07:58:11.385Z,96.10
2023-04-25T08:00:56.668Z,96.30
2023-04-25T08:03:42.413Z,96.50
2023-04-25T08:06:28.425Z,96.80
2023-04-25T08:09:13.837Z,97.00
2023-04-25T08:11:59.127Z,96.50
2023-04-25T08:14:44.467Z,96.90
2023-04-25T08:17:29.781Z,96.20
2023-04-25T08:20:15.234Z,97.00
2023-04-25T08:23:00.641Z,96.70
2023-04-25T08:25:45.945Z,96.60
2023-04-25T08:28:31.632Z,97.00
2023-04-25T08:31:17.566Z,96.90
2023-04-25T08:34:02.640Z,96.40
2023-04-25T08:36:48.039Z,96.80
2023-04-25T08:39:33.479Z,96.80
2023-04-25T08:42:19.155Z,96.90
2023-04-25T08:45:07.144Z,97.30
2023-04-25T08:47:53.991Z,96.60
2023-04-25T08:50:56.034Z,95.80
2023-04-25T08:53:43.828Z,96.20
2023-04-25T08:56:31.000Z,95.70
2023-04-25T08:59:16.474Z,95.30
2023-04-25T09:02:02.253Z,96.00
2023-04-25T09:04:47.660Z,95.30
2023-04-25T09:07:33.516Z,95.00
2023-04-25T09:10:18.850Z,94.40
2023-04-25T09:13:09.719Z,94.10
2023-04-25T09:15:56.845Z,94.50
2023-04-25T09:18:48.357Z,94.60
2023-04-25T09:21:35.869Z,94.00
2023-04-25T09:24:41.606Z,93.50
2023-04-25T09:27:27.914Z,93.90
2023-04-25T09:30:16.704Z,93.80
2023-04-25T09:33:09.628Z,93.40
2023-04-25T09:35:56.709Z,93.90
2023-04-25T09:38:46.968Z,94.20
2023-04-25T09:41:32.000Z,93.80
2023-04-25T09:44:25.203Z,93.50
2023-04-25T09:47:13.497Z,93.20
2023-04-25T09:49:59.398Z,93.30
2023-04-25T09:52:44.456Z,93.30
2023-04-25T09:55:30.260Z,93.80
2023-04-25T09:58:16.271Z,95.20
2023-04-25T10:01:03.786Z,91.90
2023-04-25T10:03:51.572Z,91.40
2023-04-25T10:06:38.516Z,90.50
2023-04-25T10:09:27.219Z,90.60
2023-04-25T10:12:12.483Z,91.30
2023-04-25T10:14:59.172Z,90.60
2023-04-25T10:17:45.270Z,90.00
2023-04-25T10:20:31.210Z,89.80
2023-04-25T10:23:17.925Z,89.60
2023-04-25T10:26:03.404Z,89.50
2023-04-25T10:29:04.686Z,88.40
2023-04-25T10:31:49.953Z,86.70
2023-04-25T10:34:43.506Z,85.80
2023-04-25T10:37:28.732Z,86.70
2023-04-25T10:40:14.809Z,85.80
2023-04-25T10:43:32.203Z,88.50
2023-04-25T10:46:28.563Z,86.50
2023-04-25T10:49:29.976Z,86.00
2023-04-25T10:52:16.883Z,83.60
2023-04-25T10:55:04.611Z,81.80
2023-04-25T10:57:50.918Z,80.80
2023-04-25T11:00:48.197Z,83.50
2023-04-25T11:03:46.676Z,86.30
2023-04-25T11:06:53.811Z,83.20
2023-04-25T11:09:42.069Z,84.00
2023-04-25T11:12:27.517Z,82.00
2023-04-25T11:15:12.796Z,80.50
2023-04-25T11:17:58.129Z,82.20
2023-04-25T11:20:44.513Z,82.20
2023-04-25T11:23:31.287Z,80.40
2023-04-25T11:26:17.338Z,77.70
2023-04-25T11:29:02.753Z,78.50
2023-04-25T11:31:48.060Z,78.10
2023-04-25T11:34:34.532Z,78.10
2023-04-25T11:37:19.904Z,78.60
2023-04-25T11:40:07.470Z,77.50
2023-04-25T11:42:55.222Z,74.50
2023-04-25T11:45:41.036Z,76.10
2023-04-25T11:48:26.662Z,74.90
2023-04-25T11:51:12.851Z,75.30
2023-04-25T11:53:57.937Z,76.30
2023-04-25T11:56:47.407Z,74.20
2023-04-25T11:59:32.557Z,74.90
2023-04-25T12:02:27.791Z,74.00
2023-04-25T12:05:30.416Z,76.60
2023-04-25T12:08:18.026Z,76.70
2023-04-25T12:11:03.655Z,76.90
2023-04-25T12:13:54.208Z,77.00
2023-04-25T12:16:44.501Z,76.70
2023-04-25T12:19:35.498Z,77.20
2023-04-25T12:22:22.644Z,77.60
2023-04-25T12:25:08.670Z,75.20
2023-04-25T12:27:54.106Z,77.90
2023-04-25T12:31:04.165Z,76.80
2023-04-25T12:33:49.668Z,76.10
2023-04-25T12:36:35.154Z,75.90
2023-04-25T12:39:26.008Z,74.10
2023-04-25T12:42:14.019Z,73.20
2023-04-25T12:44:59.190Z,71.70
2023-04-25T12:47:44.726Z,74.90
2023-04-25T12:50:29.784Z,73.90
2023-04-25T12:53:15.639Z,73.10
2023-04-25T12:56:01.237Z,73.40
2023-04-25T12:58:47.424Z,73.90
2023-04-25T13:01:34.716Z,73.30
2023-04-25T13:04:22.553Z,72.80
2023-04-25T13:07:08.238Z,72.40
2023-04-25T13:09:53.670Z,73.60
2023-04-25T13:12:39.048Z,74.70
2023-04-25T13:15:24.504Z,74.80
2023-04-25T13:18:09.856Z,73.70
2023-04-25T13:20:55.657Z,74.10
2023-04-25T13:23:42.738Z,72.40
2023-04-25T13:26:28.306Z,71.60
2023-04-25T13:29:14.419Z,72.60
2023-04-25T13:31:59.420Z,71.80
2023-04-25T13:34:44.820Z,73.50
2023-04-25T13:37:31.824Z,72.60
2023-04-25T13:40:16.956Z,74.60
2023-04-25T13:43:03.093Z,76.40
2023-04-25T13:45:49.625Z,76.50
2023-04-25T13:48:35.078Z,77.00
2023-04-25T13:51:21.566Z,75.80
2023-04-25T13:54:06.615Z,75.70
2023-04-25T13:56:52.870Z,75.60
2023-04-25T13:59:39.113Z,75.90
2023-04-25T14:02:24.582Z,77.30
2023-04-25T14:05:10.503Z,77.20
2023-04-25T14:07:56.316Z,76.20
2023-04-25T14:10:41.714Z,75.40
2023-04-25T14:13:27.458Z,72.00
2023-04-25T14:16:12.610Z,73.20
2023-04-25T14:18:58.879Z,74.50
2023-04-25T14:21:44.542Z,75.30
2023-04-25T14:24:30.031Z,74.60
2023-04-25T14:27:15.447Z,74.10
2023-04-25T14:30:00.936Z,74.70
2023-04-25T14:32:47.152Z,74.90
2023-04-25T14:35:32.393Z,74.90
2023-04-25T14:38:18.087Z,74.80
2023-04-25T14:41:03.281Z,75.80
2023-04-25T14:43:48.812Z,76.50
2023-04-25T14:46:34.920Z,76.80
2023-04-25T14:49:20.497Z,76.60
2023-04-25T14:52:05.999Z,78.20
2023-04-25T14:54:51.236Z,77.40
2023-04-25T14:57:36.655Z,77.30
2023-04-25T15:00:23.031Z,77.30
2023-04-25T15:03:08.617Z,77.50
2023-04-25T15:05:56.265Z,78.70
2023-04-25T15:08:41.709Z,79.00
2023-04-25T15:11:27.032Z,78.90
2023-04-25T15:14:12.509Z,79.00
2023-04-25T15:16:57.927Z,79.00
2023-04-25T15:19:43.440Z,77.30
2023-04-25T15:22:29.205Z,76.40
2023-04-25T15:25:14.267Z,76.50
2023-04-25T15:28:00.941Z,75.70
2023-04-25T15:30:46.278Z,74.60
2023-04-25T15:33:32.025Z,73.80
2023-04-25T15:36:19.320Z,75.20
2023-04-25T15:39:05.281Z,75.30
2023-04-25T15:41:50.287Z,74.00
2023-04-25T15:44:35.718Z,74.60
2023-04-25T15:47:21.164Z,73.60
2023-04-25T15:50:09.427Z,73.00
2023-04-25T15:52:54.821Z,73.20
2023-04-25T15:55:40.296Z,74.50
2023-04-25T15:58:27.462Z,76.50
2023-04-25T16:01:13.046Z,78.70
2023-04-25T16:06:44.834Z,75.30
2023-04-25T16:09:31.853Z,76.20
2023-04-25T16:12:17.959Z,76.40
2023-04-25T16:15:04.352Z,77.20
2023-04-25T16:17:49.536Z,77.50
2023-04-25T16:20:34.776Z,77.40
2023-04-25T16:23:20.303Z,76.60
2023-04-25T16:26:05.858Z,75.90
2023-04-25T16:28:51.213Z,75.10
2023-04-25T16:31:36.944Z,75.00
2023-04-25T16:34:23.424Z,74.30
2023-04-25T16:37:10.513Z,73.00
2023-04-25T16:43:14.008Z,74.50
2023-04-25T16:45:59.855Z,74.30
2023-04-25T16:48:51.261Z,74.50
2023-04-25T16:51:36.736Z,74.30
2023-04-25T16:54:22.011Z,73.80
2023-04-25T16:57:10.387Z,73.50
2023-04-25T16:59:56.611Z,73.30
2023-04-25T17:02:42.283Z,74.30
2023-04-25T17:05:27.472Z,74.30
2023-04-25T17:08:13.053Z,74.10
2023-04-25T17:10:59.823Z,73.90
2023-04-25T17:13:45.911Z,74.80
2023-04-25T17:16:38.501Z,74.00
2023-04-25T17:19:24.208Z,73.30
2023-04-25T17:22:09.485Z,73.80
2023-04-25T17:24:54.836Z,72.90
2023-04-25T17:27:40.072Z,71.80
2023-04-25T17:30:26.733Z,71.40
2023-04-25T17:33:11.912Z,71.50
2023-04-25T17:35:57.279Z,71.80
2023-04-25T17:38:42.801Z,71.70
2023-04-25T17:41:28.220Z,71.80
2023-04-25T17:44:13.686Z,72.50
2023-04-25T17:47:01.115Z,72.10
2023-04-25T17:49:46.394Z,72.20
2023-04-25T17:52:31.920Z,72.80
2023-04-25T17:55:17.161Z,72.90
2023-04-25T17:58:02.629Z,74.00
2023-04-25T18:00:48.155Z,73.30
2023-04-25T18:03:33.696Z,73.40
2023-04-25T18:06:19.168Z,73.90
2023-04-25T18:09:15.827Z,73.80
2023-04-25T18:12:02.105Z,73.70
2023-04-25T18:14:47.544Z,74.20
2023-04-25T18:17:42.583Z,74.40
2023-04-25T18:20:28.580Z,74.30
2023-04-25T18:23:14.006Z,74.60
2023-04-25T18:25:59.283Z,74.50
2023-04-25T18:28:44.707Z,74.70
2023-04-25T18:31:32.090Z,74.40
2023-04-25T18:34:20.319Z,76.20
2023-04-25T18:37:05.575Z,80.40
2023-04-25T18:39:51.941Z,75.70
2023-04-25T18:42:37.930Z,74.90
2023-04-25T18:45:23.018Z,75.80
2023-04-25T18:48:08.341Z,75.60
2023-04-25T18:50:53.786Z,75.50
2023-04-25T18:53:39.300Z,76.60
2023-04-25T18:56:25.667Z,76.40
2023-04-25T18:59:11.334Z,75.80
2023-04-25T19:01:56.428Z,76.80
2023-04-25T19:04:42.819Z,76.10
2023-04-25T19:07:30.735Z,77.60
2023-04-25T19:10:16.193Z,76.80
2023-04-25T19:13:01.637Z,77.10
2023-04-25T19:15:48.152Z,77.80
2023-04-25T19:18:33.512Z,76.90
2023-04-25T19:21:19.108Z,77.10
2023-04-25T19:24:05.337Z,75.90
2023-04-25T19:26:50.683Z,76.30
2023-04-25T19:29:36.300Z,76.10
2023-04-25T19:32:21.686Z,76.00
2023-04-25T19:35:10.915Z,76.00
2023-04-25T19:37:56.938Z,76.20
2023-04-25T19:40:42.937Z,75.90
2023-04-25T19:43:29.652Z,75.40
2023-04-25T19:46:15.358Z,75.60
2023-04-25T19:49:01.488Z,75.40
2023-04-25T19:51:46.752Z,75.70
2023-04-25T19:54:32.799Z,75.80
2023-04-25T19:57:18.330Z,75.80
2023-04-25T20:00:10.642Z,76.70
2023-04-25T20:02:56.493Z,79.00
2023-04-25T20:05:41.778Z,79.10
2023-04-25T20:08:27.272Z,79.60
2023-04-25T20:11:12.457Z,80.30
2023-04-25T20:13:57.793Z,79.70
2023-04-25T20:16:43.256Z,79.40
2023-04-25T20:19:28.472Z,78.50
2023-04-25T20:22:13.947Z,79.30
2023-04-25T20:24:59.305Z,79.40
2023-04-25T20:27:45.340Z,79.40
2023-04-25T20:30:32.079Z,79.20
2023-04-25T20:33:17.219Z,79.70
2023-04-25T20:36:02.767Z,80.00
2023-04-25T20:38:48.058Z,80.30
2023-04-25T20:41:33.922Z,81.10
2023-04-25T20:44:22.759Z,80.60
2023-04-25T20:47:09.522Z,80.70
2023-04-25T20:49:55.441Z,81.00
2023-04-25T20:52:41.833Z,81.50
2023-04-25T20:55:27.791Z,82.30
2023-04-25T20:58:13.124Z,82.10
2023-04-25T21:00:58.991Z,82.70
2023-04-25T21:03:47.415Z,83.20
2023-04-25T21:06:34.526Z,83.00
2023-04-25T21:09:19.869Z,83.00
2023-04-25T21:12:05.674Z,83.10
2023-04-25T21:14:51.383Z,82.70
2023-04-25T21:17:36.676Z,82.60
2023-04-25T21:20:22.131Z,82.60
2023-04-25T21:23:07.720Z,82.40
2023-04-25T21:25:54.181Z,81.80
2023-04-25T21:28:39.494Z,81.80
2023-04-25T21:31:24.881Z,82.30
2023-04-25T21:34:10.437Z,82.10
2023-04-25T21:36:56.401Z,85.70
2023-04-25T21:39:41.683Z,82.30
2023-04-25T21:42:26.989Z,82.50
2023-04-25T21:45:12.884Z,82.20
2023-04-25T21:47:58.468Z,82.70
2023-04-25T21:50:44.113Z,81.90
2023-04-25T21:53:29.436Z,83.10
2023-04-25T21:56:14.853Z,82.40
2023-04-25T21:59:00.229Z,82.50
2023-04-25T22:01:46.466Z,83.20
2023-04-25T22:04:31.553Z,83.00
2023-04-25T22:07:17.015Z,82.80
2023-04-25T22:10:02.231Z,82.20
2023-04-25T22:12:50.822Z,82.50
2023-04-25T22:15:36.362Z,82.90
2023-04-25T22:18:22.213Z,83.10
2023-04-25T22:21:08.582Z,83.40
2023-04-25T22:23:54.148Z,83.50
2023-04-25T22:26:39.242Z,83.50
2023-04-25T22:29:24.561Z,83.50
2023-04-25T22:32:09.955Z,82.90
2023-04-25T22:34:55.539Z,82.60
2023-04-25T22:37:41.676Z,82.80
2023-04-25T22:40:26.801Z,83.50
2023-04-25T22:43:12.251Z,83.30
2023-04-25T22:45:58.907Z,82.80
2023-04-25T22:48:44.852Z,82.10
2023-04-25T22:51:31.024Z,82.60
2023-04-25T22:54:16.385Z,82.40
2023-04-25T22:57:01.705Z,82.50
2023-04-25T22:59:47.139Z,82.70
2023-04-25T23:02:32.670Z,81.60
2023-04-25T23:05:18.204Z,82.40
2023-04-25T23:08:03.882Z,82.20
2023-04-25T23:10:49.157Z,82.30
2023-04-25T23:13:37.594Z,82.90
2023-04-25T23:16:22.750Z,82.10
2023-04-25T23:19:08.159Z,83.20
2023-04-25T23:21:54.292Z,83.00
2023-04-25T23:24:39.376Z,83.00
2023-04-25T23:27:24.800Z,82.50
2023-04-25T23:30:10.677Z,83.00
2023-04-25T23:32:56.324Z,82.90
2023-04-25T23:35:41.721Z,83.10
2023-04-25T23:38:27.823Z,83.40
2023-04-25T23:41:13.270Z,83.90
2023-04-25T23:43:58.630Z,84.40
2023-04-25T23:46:44.125Z,85.00
2023-04-25T23:49:29.533Z,85.20
2023-04-25T23:52:14.889Z,85.20
2023-04-25T23:55:00.255Z,85.90
2023-04-25T23:57:45.528Z,85.80
